createdAt,value
2017-04-28T00:00:41.668Z,28.62
2017-04-28T00:03:08.736Z,31.42
2017-04-28T00:05:35.813Z,30.68
2017-04-28T00:08:02.989Z,29.30
2017-04-28T00:10:30.056Z,28.75
2017-04-28T00:12:57.105Z,28.68
2017-04-28T00:15:24.204Z,30.93
2017-04-28T00:17:51.298Z,31.00
2017-04-28T00:20:18.348Z,30.25
2017-04-28T00:22:45.455Z,28.80
2017-04-28T00:25:12.553Z,25.53
2017-04-28T00:27:39.684Z,29.88
2017-04-28T00:30:06.732Z,29.20
2017-04-28T00:32:33.782Z,30.57
2017-04-28T00:35:00.851Z,30.90
2017-04-28T00:37:27.949Z,32.48
2017-04-28T00:39:55.037Z,33.67
2017-04-28T00:42:22.096Z,32.13
2017-04-28T00:44:49.187Z,29.07
2017-04-28T00:47:16.231Z,31.13
2017-04-28T00:49:43.308Z,30.53
2017-04-28T00:52:10.337Z,31.27
2017-04-28T00:54:37.429Z,31.10
2017-04-28T00:57:04.495Z,30.67
2017-04-28T00:59:32.335Z,33.38
2017-04-28T01:01:59.603Z,31.53
2017-04-28T01:04:26.653Z,32.03
2017-04-28T01:06:53.748Z,32.63
2017-04-28T01:09:20.865Z,30.17
2017-04-28T01:11:47.975Z,30.42
2017-04-28T01:14:15.047Z,31.23
2017-04-28T01:16:42.129Z,31.83
2017-04-28T01:19:09.177Z,30.22
2017-04-28T01:21:36.229Z,32.52
2017-04-28T01:24:03.306Z,30.75
2017-04-28T01:26:31.174Z,31.15
2017-04-28T01:28:59.080Z,29.48
2017-04-28T01:31:26.187Z,29.47
2017-04-28T01:33:53.219Z,28.43
2017-04-28T01:36:20.358Z,30.57
2017-04-28T01:38:47.427Z,31.38
2017-04-28T01:41:14.499Z,31.12
2017-04-28T01:43:41.541Z,31.83
2017-04-28T01:46:08.649Z,29.38
2017-04-28T01:48:35.737Z,32.33
2017-04-28T01:51:02.808Z,30.92
2017-04-28T01:53:29.856Z,29.23
2017-04-28T01:55:56.936Z,30.53
2017-04-28T01:58:24.780Z,28.12
2017-04-28T02:00:51.859Z,28.30
2017-04-28T02:03:19.660Z,25.43
2017-04-28T02:05:46.704Z,28.33
2017-04-28T02:08:13.751Z,28.63
2017-04-28T02:10:40.816Z,30.12
2017-04-28T02:13:07.879Z,30.72
2017-04-28T02:15:34.952Z,31.68
2017-04-28T02:18:02.050Z,31.37
2017-04-28T02:20:29.084Z,33.47
2017-04-28T02:22:56.175Z,32.50
2017-04-28T02:25:23.252Z,31.70
2017-04-28T02:27:50.317Z,33.73
2017-04-28T02:30:17.381Z,31.53
2017-04-28T02:32:44.411Z,35.92
2017-04-28T02:35:11.516Z,30.77
2017-04-28T02:37:38.561Z,31.77
2017-04-28T02:40:05.653Z,35.42
2017-04-28T02:42:32.759Z,33.02
2017-04-28T02:44:59.823Z,35.65
2017-04-28T02:47:26.885Z,36.13
2017-04-28T02:49:54.017Z,37.48
2017-04-28T02:52:21.140Z,34.75
2017-04-28T02:54:48.197Z,34.07
2017-04-28T02:57:15.257Z,35.52
2017-04-28T02:59:42.328Z,36.73
2017-04-28T03:02:09.740Z,36.58
2017-04-28T03:04:36.810Z,35.53
2017-04-28T03:07:03.921Z,37.32
2017-04-28T03:09:31.017Z,36.28
2017-04-28T03:11:58.073Z,35.10
2017-04-28T03:14:25.153Z,36.82
2017-04-28T03:16:52.211Z,36.05
2017-04-28T03:19:19.321Z,36.82
2017-04-28T03:21:46.400Z,36.25
2017-04-28T03:24:13.436Z,34.13
2017-04-28T03:26:40.501Z,37.22
2017-04-28T03:29:07.656Z,35.52
2017-04-28T03:31:34.704Z,32.55
2017-04-28T03:34:01.768Z,36.07
2017-04-28T03:36:28.803Z,34.57
2017-04-28T03:38:55.889Z,34.98
2017-04-28T03:41:22.945Z,36.60
2017-04-28T03:43:49.992Z,36.12
2017-04-28T03:46:17.024Z,35.57
2017-04-28T03:48:44.066Z,36.75
2017-04-28T03:51:11.165Z,30.97
2017-04-28T03:53:38.235Z,31.87
2017-04-28T03:56:05.457Z,36.38
2017-04-28T03:58:32.501Z,32.38
2017-04-28T04:00:59.543Z,30.62
2017-04-28T04:03:26.575Z,34.05
2017-04-28T04:05:54.373Z,34.27
2017-04-28T04:08:21.464Z,36.77
2017-04-28T04:10:48.515Z,35.80
2017-04-28T04:13:15.624Z,35.63
2017-04-28T04:15:42.705Z,37.85
2017-04-28T04:18:09.780Z,35.43
2017-04-28T04:20:36.860Z,37.05
2017-04-28T04:23:04.652Z,35.62
2017-04-28T04:25:31.761Z,39.70
2017-04-28T04:27:58.845Z,36.52
2017-04-28T04:30:25.939Z,34.02
2017-04-28T04:32:52.969Z,36.40
2017-04-28T04:35:20.098Z,37.18
2017-04-28T04:37:47.906Z,36.77
2017-04-28T04:40:14.980Z,38.07
2017-04-28T04:42:42.120Z,36.87
2017-04-28T04:45:09.164Z,36.45
2017-04-28T04:47:36.298Z,36.12
2017-04-28T04:50:03.390Z,34.73
2017-04-28T04:52:30.455Z,36.62
2017-04-28T04:54:57.568Z,35.57
2017-04-28T04:57:24.713Z,35.37
2017-04-28T04:59:51.864Z,32.50
2017-04-28T05:02:19.787Z,33.87
2017-04-28T05:04:46.869Z,32.78
2017-04-28T05:07:13.963Z,35.20
2017-04-28T05:09:41.020Z,36.85
2017-04-28T05:12:08.080Z,34.30
2017-04-28T05:14:35.167Z,35.00
2017-04-28T05:17:02.201Z,37.05
2017-04-28T05:19:29.227Z,36.85
2017-04-28T05:21:56.295Z,36.85
2017-04-28T05:24:23.529Z,37.00
2017-04-28T05:26:50.588Z,37.03
2017-04-28T05:29:17.684Z,39.08
2017-04-28T05:31:44.768Z,39.25
2017-04-28T05:34:12.599Z,37.48
2017-04-28T05:36:39.857Z,37.63
2017-04-28T05:39:06.904Z,35.75
2017-04-28T05:41:33.953Z,38.12
2017-04-28T05:44:01.024Z,38.13
2017-04-28T05:46:28.122Z,37.50
2017-04-28T05:48:55.916Z,39.37
2017-04-28T05:51:22.988Z,41.47
2017-04-28T05:53:50.041Z,40.00
2017-04-28T05:56:17.102Z,39.63
2017-04-28T05:58:44.160Z,42.05
2017-04-28T06:01:11.247Z,38.67
2017-04-28T06:03:39.080Z,37.17
2017-04-28T06:06:06.145Z,35.68
2017-04-28T06:08:33.271Z,36.37
2017-04-28T06:11:00.358Z,34.65
2017-04-28T06:13:27.919Z,35.87
2017-04-28T06:15:54.996Z,34.10
2017-04-28T06:18:22.845Z,34.43
2017-04-28T06:20:50.067Z,35.90
2017-04-28T06:23:17.162Z,35.30
2017-04-28T06:25:44.224Z,35.02
2017-04-28T06:28:11.275Z,32.55
2017-04-28T06:30:38.369Z,35.50
2017-04-28T06:33:05.434Z,30.92
2017-04-28T06:35:32.518Z,32.28
2017-04-28T06:37:59.643Z,35.93
2017-04-28T06:40:26.711Z,33.20
2017-04-28T06:42:53.776Z,35.12
2017-04-28T06:45:20.821Z,34.70
2017-04-28T06:47:47.934Z,34.87
2017-04-28T06:50:15.019Z,35.45
2017-04-28T06:52:42.173Z,36.67
2017-04-28T06:55:09.298Z,37.90
2017-04-28T06:57:36.437Z,37.07
2017-04-28T07:00:05.290Z,38.22
2017-04-28T07:02:32.357Z,37.62
2017-04-28T07:04:59.486Z,38.60
2017-04-28T07:07:26.545Z,37.40
2017-04-28T07:09:53.594Z,36.62
2017-04-28T07:12:20.628Z,36.08
2017-04-28T07:14:47.704Z,35.60
2017-04-28T07:17:14.793Z,39.92
2017-04-28T07:19:42.629Z,38.42
2017-04-28T07:22:09.768Z,41.72
2017-04-28T07:24:36.829Z,39.23
2017-04-28T07:27:03.889Z,36.48
2017-04-28T07:29:30.964Z,39.85
2017-04-28T07:31:58.008Z,36.67
2017-04-28T07:34:25.064Z,35.63
2017-04-28T07:36:52.137Z,37.92
2017-04-28T07:39:19.216Z,37.55
2017-04-28T07:41:46.988Z,35.52
2017-04-28T07:44:14.100Z,35.70
2017-04-28T07:46:41.192Z,36.06
2017-04-28T07:49:08.988Z,36.37
2017-04-28T07:51:36.092Z,35.30
2017-04-28T07:54:03.140Z,34.00
2017-04-28T07:56:30.205Z,35.90
2017-04-28T07:58:58.011Z,35.72
2017-04-28T08:01:25.116Z,34.52
2017-04-28T08:03:52.275Z,36.26
2017-04-28T08:06:19.395Z,37.46
2017-04-28T08:08:46.484Z,38.93
2017-04-28T08:11:14.290Z,35.72
2017-04-28T08:13:41.384Z,36.62
2017-04-28T08:16:15.524Z,36.02
2017-04-28T08:18:42.597Z,33.70
2017-04-28T08:21:10.463Z,33.88
2017-04-28T08:23:38.320Z,34.10
2017-04-28T08:26:05.509Z,34.03
2017-04-28T08:28:32.567Z,37.18
2017-04-28T08:30:59.637Z,31.80
2017-04-28T08:33:26.775Z,33.96
2017-04-28T08:35:53.895Z,33.50
2017-04-28T08:38:20.979Z,31.18
2017-04-28T08:40:48.103Z,31.94
2017-04-28T08:43:15.188Z,34.62
2017-04-28T08:45:42.247Z,34.22
2017-04-28T08:48:09.295Z,36.18
2017-04-28T08:50:36.395Z,33.83
2017-04-28T08:53:03.659Z,33.26
2017-04-28T08:55:30.749Z,32.60
2017-04-28T08:57:58.582Z,38.16
2017-04-28T09:00:25.660Z,39.04
2017-04-28T09:02:53.860Z,34.32
2017-04-28T09:05:21.680Z,36.24
2017-04-28T09:07:48.741Z,37.98
2017-04-28T09:10:15.799Z,34.74
2017-04-28T09:12:42.915Z,34.38
2017-04-28T09:15:09.968Z,35.82
2017-04-28T09:17:37.019Z,37.98
2017-04-28T09:20:04.096Z,35.58
2017-04-28T09:22:31.219Z,37.05
2017-04-28T09:24:58.313Z,33.80
2017-04-28T09:27:25.415Z,36.53
2017-04-28T09:29:52.475Z,35.54
2017-04-28T09:32:19.532Z,35.06
2017-04-28T09:34:46.569Z,33.88
2017-04-28T09:37:14.384Z,32.20
2017-04-28T09:39:41.452Z,32.32
2017-04-28T09:42:08.499Z,33.84
2017-04-28T09:44:35.600Z,30.24
2017-04-28T09:47:03.515Z,32.20
2017-04-28T09:49:30.597Z,30.40
2017-04-28T09:51:57.814Z,30.22
2017-04-28T09:54:24.885Z,30.10
2017-04-28T09:56:51.948Z,31.64
2017-04-28T09:59:19.085Z,30.46
2017-04-28T10:01:46.181Z,29.92
2017-04-28T10:04:13.292Z,34.50
2017-04-28T10:06:40.398Z,30.76
2017-04-28T10:09:08.818Z,30.80
2017-04-28T10:11:35.895Z,31.46
2017-04-28T10:14:04.151Z,31.00
2017-04-28T10:16:31.222Z,31.82
2017-04-28T10:18:58.305Z,32.44
2017-04-28T10:21:25.536Z,30.64
2017-04-28T10:23:52.585Z,33.56
2017-04-28T10:26:19.728Z,32.58
2017-04-28T10:28:46.855Z,35.84
2017-04-28T10:31:14.117Z,33.56
2017-04-28T10:33:41.168Z,25.90
2017-04-28T10:36:08.251Z,29.28
2017-04-28T10:38:35.308Z,33.32
2017-04-28T10:41:02.416Z,33.78
2017-04-28T10:43:30.208Z,30.38
2017-04-28T10:45:57.286Z,31.34
2017-04-28T10:48:24.320Z,27.80
2017-04-28T10:50:51.628Z,27.94
2017-04-28T10:53:18.697Z,28.26
2017-04-28T10:55:46.509Z,28.30
2017-04-28T10:58:13.604Z,30.58
2017-04-28T11:00:40.837Z,30.04
2017-04-28T11:03:07.970Z,32.44
2017-04-28T11:05:35.042Z,31.94
2017-04-28T11:08:02.237Z,33.70
2017-04-28T11:10:29.311Z,28.82
2017-04-28T11:12:57.157Z,20.28
2017-04-28T11:15:24.202Z,17.84
2017-04-28T11:17:51.260Z,20.76
2017-04-28T11:20:18.356Z,23.24
2017-04-28T11:22:45.937Z,23.84
2017-04-28T11:25:13.024Z,23.36
2017-04-28T11:27:40.076Z,20.08
2017-04-28T11:30:07.141Z,24.64
2017-04-28T11:32:34.252Z,23.28
2017-04-28T11:35:01.342Z,19.50
2017-04-28T11:37:28.411Z,19.80
2017-04-28T11:39:55.669Z,21.72
2017-04-28T11:42:22.747Z,21.52
2017-04-28T11:44:49.815Z,22.14
2017-04-28T11:47:17.144Z,17.60
2017-04-28T11:49:45.025Z,20.24
2017-04-28T11:52:12.108Z,19.74
2017-04-28T11:54:39.177Z,17.28
2017-04-28T11:57:06.272Z,19.12
2017-04-28T11:59:34.061Z,21.50
2017-04-28T12:02:01.401Z,23.00
2017-04-28T12:04:29.317Z,17.24
2017-04-28T12:06:56.388Z,17.90
2017-04-28T12:09:23.489Z,16.92
2017-04-28T12:11:51.296Z,17.40
2017-04-28T12:14:18.355Z,15.70
2017-04-28T12:16:45.450Z,12.06
2017-04-28T12:19:12.595Z,16.10
2017-04-28T12:21:39.712Z,13.10
2017-04-28T12:24:06.804Z,12.80
2017-04-28T12:26:33.942Z,12.98
2017-04-28T12:29:01.021Z,15.40
2017-04-28T12:31:28.108Z,12.94
2017-04-28T12:33:55.170Z,11.84
2017-04-28T12:36:22.257Z,15.04
2017-04-28T12:38:49.357Z,11.83
2017-04-28T12:41:18.211Z,14.20
2017-04-28T12:43:46.120Z,15.33
2017-04-28T12:46:14.039Z,15.10
2017-04-28T12:48:42.082Z,11.43
2017-04-28T12:51:09.908Z,10.50
2017-04-28T12:53:37.722Z,9.06
2017-04-28T12:56:05.563Z,14.48
2017-04-28T12:58:33.531Z,8.94
2017-04-28T13:01:01.426Z,19.04
2017-04-28T13:03:29.318Z,12.18
2017-04-28T13:05:57.248Z,12.40
2017-04-28T13:08:25.083Z,15.88
2017-04-28T13:10:52.867Z,12.00
2017-04-28T13:13:20.810Z,12.06
2017-04-28T13:15:48.587Z,13.88
2017-04-28T13:18:15.966Z,18.84
2017-04-28T13:20:43.468Z,17.80
2017-04-28T13:23:10.850Z,17.56
2017-04-28T13:25:38.206Z,13.86
2017-04-28T13:28:05.574Z,23.94
2017-04-28T13:30:32.801Z,16.74
2017-04-28T13:33:00.339Z,17.42
2017-04-28T13:35:27.633Z,20.18
2017-04-28T13:37:55.088Z,22.92
2017-04-28T13:40:22.561Z,15.04
2017-04-28T13:42:50.140Z,13.98
2017-04-28T13:45:17.610Z,11.70
2017-04-28T13:47:44.783Z,14.74
2017-04-28T13:50:12.163Z,13.20
2017-04-28T13:52:39.387Z,14.60
2017-04-28T13:55:06.556Z,13.68
2017-04-28T13:57:34.086Z,12.42
2017-04-28T14:00:01.204Z,12.78
2017-04-28T14:02:28.358Z,11.48
2017-04-28T14:04:55.514Z,12.88
2017-04-28T14:07:22.612Z,12.30
2017-04-28T14:09:49.844Z,12.30
2017-04-28T14:12:16.881Z,9.84
2017-04-28T14:14:44.012Z,9.00
2017-04-28T14:17:11.069Z,15.84
2017-04-28T14:19:38.249Z,14.50
2017-04-28T14:22:05.348Z,12.28
2017-04-28T14:24:33.515Z,11.50
2017-04-28T14:27:00.623Z,9.36
2017-04-28T14:29:27.704Z,10.90
2017-04-28T14:31:54.768Z,12.18
2017-04-28T14:34:21.839Z,10.42
2017-04-28T14:36:48.916Z,9.56
2017-04-28T14:39:16.085Z,10.28
2017-04-28T14:41:43.169Z,10.42
2017-04-28T14:44:10.240Z,10.58
2017-04-28T14:46:37.352Z,10.80
2017-04-28T14:49:04.480Z,9.84
2017-04-28T14:51:31.564Z,9.00
2017-04-28T14:53:58.667Z,10.56
2017-04-28T14:56:26.488Z,10.40
2017-04-28T14:58:53.579Z,11.38
2017-04-28T15:01:20.636Z,12.00
2017-04-28T15:03:48.439Z,12.46
2017-04-28T15:06:15.578Z,10.78
2017-04-28T15:08:42.641Z,11.24
2017-04-28T15:11:09.776Z,11.14
2017-04-28T15:13:37.662Z,12.36
2017-04-28T15:16:04.851Z,11.24
2017-04-28T15:18:31.989Z,12.06
2017-04-28T15:20:59.081Z,12.56
2017-04-28T15:23:26.262Z,12.48
2017-04-28T15:25:54.170Z,10.40
2017-04-28T15:28:21.249Z,12.58
2017-04-28T15:30:48.363Z,11.14
2017-04-28T15:33:16.253Z,9.52
2017-04-28T15:35:43.325Z,7.56
2017-04-28T15:38:10.390Z,10.92
2017-04-28T15:40:37.487Z,9.04
2017-04-28T15:43:05.329Z,6.92
2017-04-28T15:45:32.392Z,8.92
2017-04-28T15:47:59.474Z,8.60
2017-04-28T15:50:26.617Z,7.78
2017-04-28T15:52:54.458Z,7.94
2017-04-28T15:55:21.812Z,7.94
2017-04-28T15:57:48.885Z,7.80
2017-04-28T16:00:16.087Z,6.88
2017-04-28T16:02:43.186Z,7.68
2017-04-28T16:05:28.647Z,8.52
2017-04-28T16:07:56.123Z,8.68
2017-04-28T16:10:23.391Z,8.58
2017-04-28T16:12:50.650Z,8.16
2017-04-28T16:15:17.909Z,6.94
2017-04-28T16:17:45.169Z,7.98
2017-04-28T16:20:12.528Z,8.84
2017-04-28T16:22:39.877Z,8.30
2017-04-28T16:25:07.249Z,9.02
2017-04-28T16:27:34.565Z,10.28
2017-04-28T16:30:02.070Z,9.26
2017-04-28T16:32:29.361Z,6.64
2017-04-28T16:34:56.688Z,7.76
2017-04-28T16:37:24.734Z,11.96
2017-04-28T16:39:52.048Z,9.02
2017-04-28T16:42:19.579Z,9.78
2017-04-28T16:44:46.903Z,8.80
2017-04-28T16:47:14.207Z,8.10
2017-04-28T16:49:41.525Z,7.52
2017-04-28T16:52:08.847Z,7.40
2017-04-28T16:54:36.280Z,10.68
2017-04-28T16:57:03.609Z,8.78
2017-04-28T16:59:30.936Z,9.46
2017-04-28T17:01:58.249Z,8.80
2017-04-28T17:04:25.515Z,7.26
2017-04-28T17:06:53.610Z,11.10
2017-04-28T17:09:21.706Z,8.52
2017-04-28T17:11:48.995Z,11.68
2017-04-28T17:14:16.285Z,11.60
2017-04-28T17:16:43.588Z,7.40
2017-04-28T17:19:10.904Z,8.76
2017-04-28T17:21:38.216Z,5.58
2017-04-28T17:24:05.525Z,8.22
2017-04-28T17:26:32.827Z,7.36
2017-04-28T17:29:00.136Z,9.68
2017-04-28T17:31:27.487Z,6.78
2017-04-28T17:33:54.857Z,10.12
2017-04-28T17:36:22.154Z,6.66
2017-04-28T17:38:49.448Z,10.86
2017-04-28T17:41:16.766Z,11.40
2017-04-28T17:43:44.080Z,12.08
2017-04-28T17:46:11.381Z,11.46
2017-04-28T17:48:39.456Z,11.24
2017-04-28T17:51:07.496Z,10.70
2017-04-28T17:53:34.772Z,11.58
2017-04-28T17:58:46.747Z,10.78
2017-04-28T18:01:14.082Z,10.90
2017-04-28T18:03:41.363Z,10.02
2017-04-28T18:06:08.659Z,11.28
2017-04-28T18:08:36.047Z,11.80
2017-04-28T18:11:03.753Z,11.50
2017-04-28T18:13:31.056Z,12.22
2017-04-28T18:15:59.196Z,11.88
2017-04-28T18:18:26.517Z,12.02
2017-04-28T18:20:54.811Z,11.94
2017-04-28T18:23:23.014Z,12.46
2017-04-28T18:25:50.410Z,13.86
2017-04-28T18:28:17.718Z,11.60
2017-04-28T18:30:52.003Z,11.60
2017-04-28T18:33:20.008Z,12.12
2017-04-28T18:35:47.328Z,12.34
2017-04-28T18:38:15.327Z,13.28
2017-04-28T18:40:42.631Z,11.64
2017-04-28T18:43:09.942Z,13.00
2017-04-28T18:45:37.276Z,12.34
2017-04-28T18:48:05.366Z,13.26
2017-04-28T18:50:32.696Z,13.10
2017-04-28T18:53:00.061Z,13.38
2017-04-28T18:55:27.400Z,12.18
2017-04-28T18:57:54.848Z,14.60
2017-04-28T19:00:22.563Z,12.38
2017-04-28T19:02:50.621Z,13.58
2017-04-28T19:05:18.027Z,12.95
2017-04-28T19:07:45.456Z,13.78
2017-04-28T19:10:12.897Z,14.76
2017-04-28T19:12:40.197Z,14.92
2017-04-28T19:15:07.637Z,17.40
2017-04-28T19:17:35.740Z,16.17
2017-04-28T19:20:03.076Z,16.82
2017-04-28T19:22:31.088Z,19.57
2017-04-28T19:24:58.410Z,19.48
2017-04-28T19:27:26.479Z,19.95
2017-04-28T19:29:53.812Z,16.12
2017-04-28T19:32:21.164Z,15.90
2017-04-28T19:34:48.510Z,15.72
2017-04-28T19:37:15.829Z,15.55
2017-04-28T19:39:43.963Z,14.63
2017-04-28T19:42:11.280Z,14.88
2017-04-28T19:44:38.541Z,13.95
2017-04-28T19:47:05.924Z,14.15
2017-04-28T19:49:33.436Z,14.63
2017-04-28T19:52:00.725Z,20.67
2017-04-28T19:54:28.085Z,18.95
2017-04-28T19:56:55.538Z,15.83
2017-04-28T19:59:23.568Z,15.25
2017-04-28T20:01:50.846Z,14.77
2017-04-28T20:04:18.297Z,14.75
2017-04-28T20:06:45.643Z,15.02
2017-04-28T20:09:13.022Z,14.47
2017-04-28T20:11:40.361Z,14.83
2017-04-28T20:14:07.659Z,14.88
2017-04-28T20:16:35.760Z,16.37
2017-04-28T20:19:03.064Z,17.60
2017-04-28T20:21:30.414Z,18.58
2017-04-28T20:23:57.721Z,14.73
2017-04-28T20:26:25.804Z,14.55
2017-04-28T20:28:53.936Z,15.25
2017-04-28T20:31:21.266Z,16.00
2017-04-28T20:33:48.634Z,15.07
2017-04-28T20:36:15.987Z,17.03
2017-04-28T20:38:43.354Z,15.87
2017-04-28T20:41:10.662Z,17.86
2017-04-28T20:43:37.997Z,16.42
2017-04-28T20:46:05.325Z,15.97
2017-04-28T20:48:32.648Z,14.82
2017-04-28T20:51:00.789Z,17.35
2017-04-28T20:53:28.393Z,17.03
2017-04-28T20:55:56.450Z,18.38
2017-04-28T20:58:23.748Z,32.67
2017-04-28T21:00:51.062Z,22.27
2017-04-28T21:03:18.342Z,24.00
2017-04-28T21:05:46.408Z,21.17
2017-04-28T21:08:13.729Z,19.53
2017-04-28T21:10:41.015Z,21.02
2017-04-28T21:13:08.368Z,18.55
2017-04-28T21:15:35.692Z,19.30
2017-04-28T21:18:03.042Z,21.25
2017-04-28T21:20:30.418Z,16.82
2017-04-28T21:22:57.778Z,18.35
2017-04-28T21:25:32.030Z,19.35
2017-04-28T21:27:59.384Z,18.67
2017-04-28T21:30:26.835Z,18.58
2017-04-28T21:32:54.195Z,19.48
2017-04-28T21:35:21.671Z,18.45
2017-04-28T21:37:49.029Z,18.52
2017-04-28T21:40:16.414Z,19.68
2017-04-28T21:42:43.752Z,17.80
2017-04-28T21:45:11.232Z,20.32
2017-04-28T21:47:38.558Z,18.80
2017-04-28T21:50:05.935Z,19.83
2017-04-28T21:52:33.242Z,20.75
2017-04-28T21:55:00.598Z,21.33
2017-04-28T21:57:27.928Z,20.35
2017-04-28T21:59:55.346Z,20.45
2017-04-28T22:04:47.175Z,20.10
2017-04-28T22:07:14.549Z,20.20
2017-04-28T22:09:41.826Z,19.72
2017-04-28T22:12:09.187Z,20.43
2017-04-28T22:14:36.728Z,20.08
2017-04-28T22:17:19.898Z,19.05
2017-04-28T22:19:46.620Z,20.33
2017-04-28T22:22:13.947Z,21.42
2017-04-28T22:24:41.277Z,22.58
2017-04-28T22:27:08.603Z,20.42
2017-04-28T22:29:35.913Z,20.95
2017-04-28T22:32:03.253Z,23.95
2017-04-28T22:34:30.565Z,21.70
2017-04-28T22:36:57.949Z,21.47
2017-04-28T22:39:25.267Z,23.23
2017-04-28T22:41:52.563Z,21.60
2017-04-28T22:44:19.926Z,20.98
2017-04-28T22:46:47.224Z,21.32
2017-04-28T22:49:14.579Z,22.25
2017-04-28T22:51:41.930Z,19.57
2017-04-28T22:54:09.212Z,20.43
2017-04-28T22:56:36.552Z,17.58
2017-04-28T22:59:03.957Z,17.75
2017-04-28T23:01:31.270Z,17.45
2017-04-28T23:03:58.641Z,20.37
2017-04-28T23:06:26.018Z,19.40
2017-04-28T23:08:53.288Z,22.13
2017-04-28T23:11:20.583Z,22.80
2017-04-28T23:13:47.972Z,17.83
2017-04-28T23:16:15.244Z,19.30
2017-04-28T23:18:42.515Z,21.78
2017-04-28T23:21:09.888Z,19.83
2017-04-28T23:23:37.237Z,18.65
2017-04-28T23:26:04.563Z,18.47
2017-04-28T23:28:31.913Z,19.12
2017-04-28T23:30:59.213Z,17.73
2017-04-28T23:33:26.512Z,20.10
2017-04-28T23:35:53.799Z,20.33
2017-04-28T23:38:21.056Z,19.50
2017-04-28T23:40:48.393Z,19.98
2017-04-28T23:43:15.783Z,20.82
2017-04-28T23:45:43.248Z,20.97
2017-04-28T23:48:10.542Z,22.10
2017-04-28T23:50:37.900Z,19.48
2017-04-28T23:53:05.188Z,19.97
2017-04-28T23:55:32.511Z,21.07
2017-04-28T23:57:59.831Z,20.78
